createdAt,value
2022-08-03T00:00:24.092Z,3.27
2022-08-03T00:02:50.578Z,3.55
2022-08-03T00:05:17.103Z,2.97
2022-08-03T00:07:43.609Z,2.00
2022-08-03T00:10:13.633Z,2.33
2022-08-03T00:12:40.193Z,2.30
2022-08-03T00:15:10.411Z,4.18
2022-08-03T00:17:53.636Z,2.08
2022-08-03T00:20:22.150Z,2.88
2022-08-03T00:22:49.329Z,4.10
2022-08-03T00:25:16.414Z,2.30
2022-08-03T00:27:42.875Z,4.25
2022-08-03T00:30:09.717Z,2.03
2022-08-03T00:32:36.211Z,2.45
2022-08-03T00:35:09.794Z,2.88
2022-08-03T00:37:41.458Z,3.70
2022-08-03T00:40:11.814Z,4.00
2022-08-03T00:42:54.403Z,4.00
2022-08-03T00:45:24.039Z,2.28
2022-08-03T00:47:50.725Z,1.52
2022-08-03T00:50:18.426Z,2.50
2022-08-03T00:52:45.753Z,4.85
2022-08-03T00:55:12.745Z,1.77
2022-08-03T00:57:39.498Z,3.15
2022-08-03T01:00:08.131Z,3.08
2022-08-03T01:02:34.984Z,5.37
2022-08-03T01:05:01.604Z,1.73
2022-08-03T01:07:36.031Z,2.55
2022-08-03T01:10:17.178Z,2.88
2022-08-03T01:12:52.691Z,2.47
2022-08-03T01:15:42.539Z,2.97
2022-08-03T01:18:18.249Z,2.38
2022-08-03T01:20:48.710Z,3.28
2022-08-03T01:23:35.037Z,4.13
2022-08-03T01:26:13.282Z,3.08
2022-08-03T01:28:59.397Z,3.73
2022-08-03T01:32:58.206Z,2.75
2022-08-03T01:34:32.681Z,3.80
2022-08-03T01:37:03.022Z,2.70
2022-08-03T01:39:32.967Z,4.32
2022-08-03T01:42:06.147Z,3.23
2022-08-03T01:44:36.961Z,5.13
2022-08-03T01:47:06.349Z,6.28
2022-08-03T01:49:37.365Z,5.72
2022-08-03T01:52:05.683Z,3.95
2022-08-03T01:54:37.732Z,3.43
2022-08-03T01:57:04.965Z,1.85
2022-08-03T01:59:35.798Z,4.53
2022-08-03T02:02:15.355Z,2.55
2022-08-03T02:04:54.071Z,6.85
2022-08-03T02:07:20.906Z,3.07
2022-08-03T02:09:51.554Z,4.47
2022-08-03T02:12:19.290Z,4.18
2022-08-03T02:14:48.715Z,3.55
2022-08-03T02:17:16.225Z,4.53
2022-08-03T02:19:44.419Z,2.60
2022-08-03T02:22:13.209Z,4.10
2022-08-03T02:24:40.260Z,3.63
2022-08-03T02:27:21.133Z,4.07
2022-08-03T02:29:53.038Z,3.60
2022-08-03T02:32:25.210Z,4.60
2022-08-03T02:34:53.336Z,3.97
2022-08-03T02:37:22.298Z,3.60
2022-08-03T02:39:53.298Z,3.90
2022-08-03T02:42:23.270Z,4.20
2022-08-03T02:44:51.343Z,5.03
2022-08-03T02:47:21.345Z,4.00
2022-08-03T02:49:52.091Z,3.53
2022-08-03T02:52:23.299Z,5.30
2022-08-03T02:54:53.863Z,4.43
2022-08-03T02:57:21.905Z,4.63
2022-08-03T02:59:49.606Z,2.60
2022-08-03T03:02:18.395Z,3.28
2022-08-03T03:05:53.052Z,6.40
2022-08-03T03:07:45.431Z,3.60
2022-08-03T03:10:21.396Z,5.63
2022-08-03T03:12:50.133Z,5.43
2022-08-03T03:15:16.790Z,5.18
2022-08-03T03:17:44.114Z,4.15
2022-08-03T03:20:11.937Z,4.47
2022-08-03T03:22:38.984Z,4.87
2022-08-03T03:25:07.376Z,4.50
2022-08-03T03:27:34.360Z,4.72
2022-08-03T03:30:01.707Z,5.45
2022-08-03T03:32:29.247Z,5.50
2022-08-03T03:34:57.040Z,7.27
2022-08-03T03:37:23.503Z,4.18
2022-08-03T03:39:49.984Z,5.20
2022-08-03T03:42:16.941Z,4.20
2022-08-03T03:44:43.663Z,6.30
2022-08-03T03:47:10.228Z,3.67
2022-08-03T03:49:37.792Z,4.55
2022-08-03T03:52:04.594Z,4.50
2022-08-03T03:54:42.221Z,5.63
2022-08-03T03:57:10.417Z,7.47
2022-08-03T03:59:41.860Z,5.73
2022-08-03T04:02:09.985Z,5.20
2022-08-03T04:04:56.042Z,7.10
2022-08-03T04:07:43.247Z,6.85
2022-08-03T04:10:31.789Z,3.70
2022-08-03T04:13:00.629Z,7.87
2022-08-03T04:15:29.104Z,3.92
2022-08-03T04:17:58.893Z,5.80
2022-08-03T04:20:29.968Z,8.18
2022-08-03T04:23:00.160Z,5.63
2022-08-03T04:25:31.097Z,6.50
2022-08-03T04:28:20.930Z,6.65
2022-08-03T04:30:50.735Z,5.88
2022-08-03T04:33:19.468Z,5.68
2022-08-03T04:36:01.307Z,6.10
2022-08-03T04:38:32.861Z,5.20
2022-08-03T04:41:01.031Z,3.70
2022-08-03T04:43:28.635Z,4.55
2022-08-03T04:45:56.886Z,6.43
2022-08-03T04:48:23.861Z,5.45
2022-08-03T04:50:50.617Z,6.10
2022-08-03T04:53:18.203Z,4.63
2022-08-03T04:55:46.645Z,4.78
2022-08-03T04:58:13.173Z,8.07
2022-08-03T05:00:39.636Z,7.15
2022-08-03T05:03:20.505Z,5.73
2022-08-03T05:05:53.066Z,5.93
2022-08-03T05:08:29.365Z,3.47
2022-08-03T05:10:58.881Z,7.50
2022-08-03T05:13:26.080Z,5.07
2022-08-03T05:15:52.733Z,5.67
2022-08-03T05:18:19.355Z,7.30
2022-08-03T05:20:45.892Z,4.50
2022-08-03T05:23:12.487Z,9.63
2022-08-03T05:25:39.327Z,7.38
2022-08-03T05:28:05.985Z,7.83
2022-08-03T05:30:33.882Z,6.45
2022-08-03T05:33:02.167Z,7.68
2022-08-03T05:36:01.011Z,7.55
2022-08-03T05:38:23.966Z,7.00
2022-08-03T05:40:57.477Z,7.00
2022-08-03T05:43:41.493Z,5.43
2022-08-03T05:46:12.867Z,7.55
2022-08-03T05:48:39.924Z,7.47
2022-08-03T05:51:07.694Z,11.73
2022-08-03T05:53:34.559Z,9.23
2022-08-03T05:56:13.746Z,6.53
2022-08-03T05:58:42.112Z,6.40
2022-08-03T06:01:08.780Z,8.30
2022-08-03T06:03:35.333Z,4.45
2022-08-03T06:06:01.872Z,8.40
2022-08-03T06:08:28.418Z,9.85
2022-08-03T06:10:54.952Z,5.93
2022-08-03T06:13:22.004Z,6.88
2022-08-03T06:15:48.526Z,7.25
2022-08-03T06:18:15.999Z,5.70
2022-08-03T06:20:42.456Z,6.88
2022-08-03T06:23:16.232Z,9.55
2022-08-03T06:25:44.946Z,12.27
2022-08-03T06:28:35.341Z,11.07
2022-08-03T06:30:58.919Z,6.90
2022-08-03T06:33:26.488Z,6.28
2022-08-03T06:36:12.965Z,6.95
2022-08-03T06:38:39.615Z,6.28
2022-08-03T06:41:06.103Z,5.13
2022-08-03T06:43:35.874Z,7.17
2022-08-03T06:46:02.703Z,8.43
2022-08-03T06:48:29.145Z,7.25
2022-08-03T06:53:59.174Z,6.18
2022-08-03T06:57:06.480Z,7.63
2022-08-03T07:07:28.466Z,6.18
2022-08-03T07:09:28.561Z,7.68
2022-08-03T07:22:30.011Z,5.03
2022-08-03T07:28:08.325Z,5.43
2022-08-03T07:29:38.158Z,8.35
2022-08-03T07:30:35.731Z,7.68
2022-08-03T07:33:02.333Z,8.18
2022-08-03T07:35:28.860Z,9.43
2022-08-03T07:37:55.475Z,8.30
2022-08-03T07:40:22.493Z,5.83
2022-08-03T07:42:49.310Z,10.93
2022-08-03T07:45:21.466Z,7.57
2022-08-03T07:47:53.478Z,6.88
2022-08-03T07:53:07.083Z,8.80
2022-08-03T07:58:20.614Z,10.77
2022-08-03T08:01:19.431Z,11.02
2022-08-03T08:03:53.198Z,5.72
2022-08-03T08:06:21.031Z,8.03
2022-08-03T08:08:47.692Z,6.63
2022-08-03T08:13:54.988Z,7.28
2022-08-03T08:16:21.540Z,10.45
2022-08-03T08:18:50.873Z,8.00
2022-08-03T08:27:24.105Z,9.32
2022-08-03T08:29:54.609Z,8.25
2022-08-03T08:32:28.034Z,8.13
2022-08-03T08:34:55.945Z,9.27
2022-08-03T08:37:22.458Z,9.90
2022-08-03T08:40:08.500Z,9.82
2022-08-03T08:42:40.260Z,10.35
2022-08-03T08:45:11.265Z,11.00
2022-08-03T08:48:08.381Z,10.52
2022-08-03T08:54:18.849Z,7.90
2022-08-03T08:59:48.747Z,10.63
2022-08-03T09:02:20.612Z,14.30
2022-08-03T09:05:13.356Z,11.77
2022-08-03T09:07:41.322Z,9.25
2022-08-03T09:13:14.603Z,10.87
2022-08-03T09:16:49.446Z,8.48
2022-08-03T09:19:14.219Z,13.32
2022-08-03T09:21:40.900Z,15.50
2022-08-03T09:24:16.449Z,11.20
2022-08-03T09:26:51.892Z,11.50
2022-08-03T09:29:52.424Z,11.88
2022-08-03T09:32:40.827Z,11.10
2022-08-03T09:35:51.490Z,10.30
2022-08-03T09:38:17.220Z,9.68
2022-08-03T09:40:45.172Z,6.77
2022-08-03T09:43:12.212Z,17.02
2022-08-03T09:45:40.002Z,10.05
2022-08-03T09:48:28.163Z,8.98
2022-08-03T09:51:13.498Z,8.10
2022-08-03T09:53:57.047Z,6.23
2022-08-03T09:57:32.217Z,8.85
2022-08-03T10:00:15.310Z,8.07
2022-08-03T10:02:46.805Z,8.32
2022-08-03T10:08:17.937Z,7.63
2022-08-03T10:16:41.688Z,7.80
2022-08-03T10:21:56.304Z,7.47
2022-08-03T10:24:31.541Z,11.27
2022-08-03T10:27:21.767Z,7.10
2022-08-03T10:30:10.329Z,7.13
2022-08-03T10:32:48.720Z,5.53
2022-08-03T10:35:20.216Z,7.17
2022-08-03T10:41:12.736Z,8.07
2022-08-03T10:43:50.503Z,8.73
2022-08-03T10:46:19.599Z,8.07
2022-08-03T10:48:47.866Z,9.93
2022-08-03T10:51:14.897Z,8.93
2022-08-03T10:53:54.358Z,8.63
2022-08-03T10:57:03.445Z,7.45
2022-08-03T10:59:46.053Z,7.40
2022-08-03T11:02:14.253Z,9.00
2022-08-03T11:04:41.547Z,6.00
2022-08-03T11:07:17.612Z,8.45
2022-08-03T11:09:48.573Z,7.10
2022-08-03T11:12:28.282Z,6.03
2022-08-03T11:15:02.529Z,7.27
2022-08-03T11:17:29.191Z,6.63
2022-08-03T11:19:57.063Z,6.32
2022-08-03T11:22:25.400Z,9.30
2022-08-03T11:24:54.032Z,6.18
2022-08-03T11:27:23.459Z,5.63
2022-08-03T11:29:58.475Z,11.75
2022-08-03T11:32:38.279Z,4.25
2022-08-03T11:35:28.927Z,4.82
2022-08-03T11:38:04.610Z,4.18
2022-08-03T11:40:39.970Z,9.27
2022-08-03T11:43:08.626Z,7.57
2022-08-03T11:45:36.467Z,7.35
2022-08-03T11:48:16.031Z,5.00
2022-08-03T11:50:45.315Z,6.15
2022-08-03T11:53:16.158Z,5.70
2022-08-03T11:55:46.799Z,5.20
2022-08-03T11:59:18.962Z,6.25
2022-08-03T12:01:06.434Z,4.45
2022-08-03T12:03:34.824Z,10.23
2022-08-03T12:06:02.373Z,4.83
2022-08-03T12:08:32.843Z,7.78
2022-08-03T12:11:02.517Z,7.38
2022-08-03T12:14:36.651Z,3.90
2022-08-03T12:16:28.727Z,9.27
2022-08-03T12:19:01.675Z,7.60
2022-08-03T12:21:29.205Z,4.60
2022-08-03T12:24:01.532Z,9.95
2022-08-03T12:26:30.093Z,5.60
2022-08-03T12:28:56.968Z,5.72
2022-08-03T12:31:23.495Z,6.57
2022-08-03T12:34:03.262Z,4.78
2022-08-03T12:36:33.130Z,5.35
2022-08-03T12:39:01.791Z,5.82
2022-08-03T12:41:30.872Z,5.55
2022-08-03T12:43:58.126Z,6.30
2022-08-03T12:46:31.330Z,4.60
2022-08-03T12:49:03.785Z,6.40
2022-08-03T12:51:33.821Z,2.90
2022-08-03T12:54:01.270Z,5.13
2022-08-03T12:56:27.795Z,3.13
2022-08-03T12:58:54.331Z,5.78
2022-08-03T13:01:24.416Z,5.65
2022-08-03T13:03:54.626Z,4.47
2022-08-03T13:06:25.487Z,5.57
2022-08-03T13:09:08.096Z,3.87
2022-08-03T13:12:01.764Z,4.72
2022-08-03T13:14:21.455Z,4.68
2022-08-03T13:16:49.346Z,4.43
2022-08-03T13:19:16.183Z,3.92
2022-08-03T13:22:02.196Z,3.63
2022-08-03T13:24:30.523Z,4.38
2022-08-03T13:26:58.199Z,4.35
2022-08-03T13:29:24.719Z,3.50
2022-08-03T13:31:51.579Z,4.18
2022-08-03T13:34:22.993Z,6.40
2022-08-03T13:37:08.417Z,4.93
2022-08-03T13:39:57.205Z,5.57
2022-08-03T13:42:22.295Z,5.30
2022-08-03T13:44:48.805Z,3.35
2022-08-03T13:47:15.380Z,4.33
2022-08-03T13:49:42.079Z,4.68
2022-08-03T13:52:21.350Z,4.80
2022-08-03T13:54:47.908Z,3.78
2022-08-03T13:58:05.705Z,4.95
2022-08-03T14:00:04.689Z,5.93
2022-08-03T14:05:26.741Z,5.82
2022-08-03T14:07:53.370Z,5.00
2022-08-03T14:10:29.617Z,3.65
2022-08-03T14:12:56.956Z,4.37
2022-08-03T14:15:23.636Z,5.45
2022-08-03T14:17:50.346Z,4.75
2022-08-03T14:20:37.813Z,2.75
2022-08-03T14:23:03.501Z,3.92
2022-08-03T14:25:31.292Z,4.27
2022-08-03T14:28:10.167Z,5.35
2022-08-03T14:30:36.717Z,2.92
2022-08-03T14:33:03.663Z,3.10
2022-08-03T14:35:30.198Z,3.28
2022-08-03T14:37:56.639Z,4.47
2022-08-03T14:40:23.130Z,3.33
2022-08-03T14:42:49.640Z,8.20
2022-08-03T14:45:20.274Z,3.10
2022-08-03T14:50:34.227Z,4.30
2022-08-03T14:50:42.047Z,4.20
2022-08-03T14:53:10.851Z,4.20
2022-08-03T14:55:38.979Z,7.00
2022-08-03T14:58:19.539Z,3.40
2022-08-03T15:00:47.340Z,4.13
2022-08-03T15:03:16.801Z,4.13
2022-08-03T15:05:44.109Z,4.53
2022-08-03T15:08:31.258Z,3.70
2022-08-03T15:13:42.096Z,3.05
2022-08-03T15:13:51.162Z,2.92
2022-08-03T15:16:17.812Z,4.03
2022-08-03T15:18:44.412Z,2.50
2022-08-03T15:21:20.790Z,7.40
2022-08-03T15:23:57.509Z,3.15
2022-08-03T15:26:31.814Z,3.13
2022-08-03T15:29:00.764Z,3.20
2022-08-03T15:31:27.736Z,3.15
2022-08-03T15:34:34.881Z,5.45
2022-08-03T15:37:01.684Z,5.43
2022-08-03T15:39:28.429Z,4.82
2022-08-03T15:42:42.029Z,3.00
2022-08-03T15:49:12.941Z,3.22
2022-08-03T15:51:48.538Z,3.15
2022-08-03T15:54:50.654Z,3.38
2022-08-03T15:57:17.283Z,3.87
2022-08-03T15:59:43.705Z,2.40
2022-08-03T16:02:12.512Z,3.05
2022-08-03T16:04:38.989Z,3.33
2022-08-03T16:07:05.569Z,4.18
2022-08-03T16:09:42.785Z,2.95
2022-08-03T16:12:14.461Z,3.28
2022-08-03T16:14:51.786Z,5.80
2022-08-03T16:17:20.155Z,4.87
2022-08-03T16:19:46.900Z,4.13
2022-08-03T16:22:14.454Z,3.60
2022-08-03T16:24:42.465Z,3.25
2022-08-03T16:27:17.460Z,3.05
2022-08-03T16:29:55.729Z,3.70
2022-08-03T16:32:22.366Z,2.30
2022-08-03T16:34:50.181Z,4.70
2022-08-03T16:37:37.734Z,4.60
2022-08-03T16:40:05.459Z,2.08
2022-08-03T16:42:34.314Z,1.67
2022-08-03T16:45:01.031Z,2.05
2022-08-03T16:47:27.548Z,3.55
2022-08-03T16:49:56.441Z,2.53
2022-08-03T16:52:24.320Z,4.05
2022-08-03T16:54:53.251Z,4.10
2022-08-03T16:57:55.763Z,3.17
2022-08-03T17:00:10.847Z,3.30
2022-08-03T17:02:38.037Z,4.20
2022-08-03T17:05:04.995Z,4.25
2022-08-03T17:07:31.470Z,4.47
2022-08-03T17:09:58.540Z,4.20
2022-08-03T17:12:27.003Z,2.38
2022-08-03T17:14:54.452Z,5.10
2022-08-03T17:17:30.404Z,2.80
2022-08-03T17:20:15.851Z,3.40
2022-08-03T17:22:54.090Z,3.85
2022-08-03T17:25:39.815Z,7.35
2022-08-03T17:28:50.947Z,4.45
2022-08-03T17:31:23.459Z,2.58
2022-08-03T17:33:58.002Z,2.60
2022-08-03T17:36:41.804Z,4.88
2022-08-03T17:39:16.691Z,2.97
2022-08-03T17:41:49.834Z,2.47
2022-08-03T17:44:31.985Z,3.78
2022-08-03T17:47:05.060Z,6.00
2022-08-03T17:49:39.874Z,2.50
2022-08-03T17:52:19.842Z,3.60
2022-08-03T17:55:55.378Z,2.88
2022-08-03T17:58:03.209Z,3.38
2022-08-03T18:00:51.579Z,3.33
2022-08-03T18:03:58.254Z,6.07
2022-08-03T18:06:30.555Z,3.05
2022-08-03T18:09:04.827Z,4.32
2022-08-03T18:11:50.744Z,2.58
2022-08-03T18:14:32.937Z,3.37
2022-08-03T18:17:06.565Z,2.38
2022-08-03T18:20:03.283Z,5.75
2022-08-03T18:22:26.874Z,3.00
2022-08-03T18:24:55.721Z,3.35
2022-08-03T18:27:23.381Z,3.67
2022-08-03T18:30:12.222Z,4.20
2022-08-03T18:32:38.961Z,5.45
2022-08-03T18:35:06.529Z,2.97
2022-08-03T18:37:51.695Z,3.25
2022-08-03T18:40:20.630Z,2.27
2022-08-03T18:45:57.601Z,3.55
2022-08-03T18:48:34.122Z,2.83
2022-08-03T18:51:06.944Z,1.83
2022-08-03T18:54:03.288Z,5.17
2022-08-03T18:56:42.679Z,2.42
2022-08-03T18:59:30.057Z,4.25
2022-08-03T19:02:06.295Z,3.38
2022-08-03T19:04:52.948Z,3.58
2022-08-03T19:07:25.718Z,2.67
2022-08-03T19:09:58.231Z,2.13
2022-08-03T19:12:39.567Z,3.42
2022-08-03T19:17:57.437Z,2.22
2022-08-03T19:20:28.471Z,4.40
2022-08-03T19:22:57.317Z,4.93
2022-08-03T19:25:35.011Z,2.45
2022-08-03T19:28:04.068Z,1.63
2022-08-03T19:30:38.547Z,2.92
2022-08-03T19:33:09.282Z,4.40
2022-08-03T19:35:51.370Z,3.03
2022-08-03T19:38:28.256Z,3.25
2022-08-03T19:41:00.658Z,5.85
2022-08-03T19:43:53.958Z,3.72
2022-08-03T19:46:30.369Z,4.07
2022-08-03T19:49:10.702Z,5.03
2022-08-03T19:52:01.057Z,4.25
2022-08-03T19:54:45.424Z,2.78
2022-08-03T19:57:18.836Z,2.40
2022-08-03T19:59:50.172Z,1.23
2022-08-03T20:05:15.524Z,3.95
2022-08-03T20:07:47.610Z,4.25
2022-08-03T20:10:16.749Z,3.05
2022-08-03T20:12:44.769Z,4.77
2022-08-03T20:15:11.949Z,1.48
2022-08-03T20:17:55.343Z,1.92
2022-08-03T20:20:28.433Z,3.10
2022-08-03T20:22:58.044Z,2.50
2022-08-03T20:25:38.264Z,3.00
2022-08-03T20:28:13.810Z,2.88
2022-08-03T20:30:43.854Z,2.60
2022-08-03T20:33:10.610Z,2.88
2022-08-03T20:35:37.268Z,2.65
2022-08-03T20:38:03.795Z,2.30
2022-08-03T20:40:30.242Z,3.60
2022-08-03T20:42:56.869Z,2.08
2022-08-03T20:45:59.605Z,2.25
2022-08-03T20:48:10.891Z,3.25
2022-08-03T20:50:38.839Z,3.23
2022-08-03T20:53:07.897Z,2.63
2022-08-03T20:55:53.846Z,5.05
2022-08-03T20:58:25.562Z,3.08
2022-08-03T21:00:56.325Z,2.38
2022-08-03T21:03:22.775Z,2.20
2022-08-03T21:05:53.660Z,4.00
2022-08-03T21:08:23.866Z,1.98
2022-08-03T21:10:52.758Z,3.22
2022-08-03T21:12:58.871Z,4.15
2022-08-03T21:13:03.417Z,3.10
2022-08-03T21:13:10.710Z,2.80
2022-08-03T21:13:42.279Z,4.38
2022-08-03T21:16:15.007Z,3.87
2022-08-03T21:18:46.322Z,3.70
2022-08-03T21:21:16.057Z,2.28
2022-08-03T21:23:48.704Z,2.15
2022-08-03T21:26:17.155Z,4.45
2022-08-03T21:28:45.971Z,2.60
2022-08-03T21:31:14.260Z,2.70
2022-08-03T21:33:54.472Z,3.88
2022-08-03T21:36:20.954Z,3.58
2022-08-03T21:38:55.715Z,3.47
2022-08-03T21:41:23.107Z,3.10
2022-08-03T21:43:49.531Z,3.60
2022-08-03T21:46:18.960Z,3.53
2022-08-03T21:48:47.752Z,4.32
2022-08-03T21:51:18.393Z,2.30
2022-08-03T21:54:02.394Z,2.23
2022-08-03T21:56:36.861Z,3.00
2022-08-03T21:59:07.007Z,4.57
2022-08-03T22:01:35.806Z,3.95
2022-08-03T22:04:06.809Z,2.90
2022-08-03T22:06:33.725Z,6.30
2022-08-03T22:09:00.970Z,4.32
2022-08-03T22:11:27.700Z,3.63
2022-08-03T22:13:54.486Z,2.00
2022-08-03T22:16:21.540Z,4.57
2022-08-03T22:18:48.061Z,5.93
2022-08-03T22:21:16.094Z,2.47
2022-08-03T22:23:55.864Z,6.10
2022-08-03T22:26:34.826Z,3.08
2022-08-03T22:29:06.825Z,3.75
2022-08-03T22:31:58.554Z,6.40
2022-08-03T22:34:26.674Z,3.22
2022-08-03T22:36:57.229Z,6.28
2022-08-03T22:39:28.123Z,2.03
2022-08-03T22:41:56.874Z,2.80
2022-08-03T22:44:24.467Z,3.60
2022-08-03T22:46:51.062Z,6.15
2022-08-03T22:49:18.369Z,4.32
2022-08-03T22:51:46.251Z,3.95
2022-08-03T22:54:12.731Z,2.35
2022-08-03T22:56:39.306Z,4.40
2022-08-03T22:59:39.829Z,4.10
2022-08-03T23:02:00.478Z,4.18
2022-08-03T23:04:31.681Z,4.03
2022-08-03T23:07:03.441Z,5.35
2022-08-03T23:09:31.037Z,2.53
2022-08-03T23:12:00.903Z,3.60
2022-08-03T23:14:30.290Z,2.17
2022-08-03T23:17:03.215Z,2.88
2022-08-03T23:19:30.626Z,3.42
2022-08-03T23:22:03.979Z,2.07
2022-08-03T23:24:36.674Z,3.05
2022-08-03T23:27:05.074Z,3.97
2022-08-03T23:29:36.470Z,4.93
2022-08-03T23:32:04.586Z,4.05
2022-08-03T23:34:50.637Z,2.87
2022-08-03T23:37:18.389Z,5.22
2022-08-03T23:39:47.052Z,4.65
2022-08-03T23:42:16.713Z,4.18
2022-08-03T23:44:45.587Z,2.95
2022-08-03T23:47:13.297Z,2.90
2022-08-03T23:49:39.821Z,3.45
2022-08-03T23:52:28.394Z,4.80
2022-08-03T23:55:03.992Z,4.10
2022-08-03T23:57:57.901Z,4.75
